METAR Data
IDs: Format: Raw Decoded Include TAF

Data at: 2208 UTC 01 Dec 2021

VHHH 012200Z 05011KT CAVOK 14/01 Q1022 NOSIG